This is the latest recevied weather packets stored in our database for station/object OE6ACM-10. If no packets are shown the sender has not sent any weather packets the latest 10 day(s).
| Time | Temp. | Humidity | Pressure | Rain* | Wind** | Luminosity | Snow |
|---|---|---|---|---|---|---|---|
| 1778071062 | 36.11° C | 64% | 918.1 hPa | - | - | - | - |
| 1778070762 | 36.11° C | 59% | 918.4 hPa | - | - | - | - |
| 1778070462 | 38.33° C | 60% | 918.2 hPa | - | - | - | - |
| 1778070162 | 37.78° C | 59% | 918.2 hPa | - | - | - | - |
| 1778069862 | 39.44° C | 61% | 918.1 hPa | - | - | - | - |
| 1778069562 | 38.89° C | 60% | 918 hPa | - | - | - | - |
| 1778069262 | 37.78° C | 59% | 918.1 hPa | - | - | - | - |
| 1778068962 | 36.67° C | 70% | 918.2 hPa | - | - | - | - |
| 1778068662 | 35° C | 70% | 918.4 hPa | - | - | - | - |
| 1778068362 | 35.56° C | 76% | 918.1 hPa | - | - | - | - |
| 1778068062 | 34.44° C | 79% | 918.3 hPa | - | - | - | - |
| 1778067762 | 33.33° C | 74% | 918.4 hPa | - | - | - | - |
| 1778067462 | 33.89° C | 71% | 918.2 hPa | - | - | - | - |
| 1778067162 | 33.33° C | 73% | 918.4 hPa | - | - | - | - |
| 1778066862 | 34.44° C | 72% | 918.5 hPa | - | - | - | - |
| 1778066562 | 33.33° C | 80% | 918.6 hPa | - | - | - | - |
| 1778066262 | 32.78° C | 80% | 918.7 hPa | - | - | - | - |
| 1778065962 | 32.78° C | 78% | 918.8 hPa | - | - | - | - |
| 1778065662 | 31.67° C | 79% | 918.7 hPa | - | - | - | - |
| 1778065362 | 32.78° C | 73% | 918.7 hPa | - | - | - | - |
| 1778065062 | 32.78° C | 69% | 918.7 hPa | - | - | - | - |
| 1778064762 | 32.22° C | 69% | 918.9 hPa | - | - | - | - |
| 1778064462 | 32.78° C | 76% | 918.8 hPa | - | - | - | - |
| 1778064162 | 32.22° C | 67% | 918.8 hPa | - | - | - | - |
| 1778063862 | 31.67° C | 65% | 918.9 hPa | - | - | - | - |
* Rain since midnight (hover to see other rain measurements)
** Current wind speed in m/s (hover to see current wind gust speed)